sensor_id;sensor_type;location;lat;lon;timestamp;pressure;altitude;pressure_sealevel;temperature;humidity
31911;BME280;18457;52.432;16.914;2023-04-24T00:01:19;99455.36;;;15.24;95.73
31911;BME280;18457;52.432;16.914;2023-04-24T00:03:52;99455.02;;;15.24;95.20
31911;BME280;18457;52.432;16.914;2023-04-24T00:06:25;99458.02;;;15.29;94.94
31911;BME280;18457;52.432;16.914;2023-04-24T00:09:04;99458.96;;;15.22;95.44
31911;BME280;18457;52.432;16.914;2023-04-24T00:11:36;99451.77;;;15.17;95.68
31911;BME280;18457;52.432;16.914;2023-04-24T00:14:09;99444.61;;;15.16;96.00
31911;BME280;18457;52.432;16.914;2023-04-24T00:16:41;99440.27;;;15.15;95.62
31911;BME280;18457;52.432;16.914;2023-04-24T00:19:14;99438.91;;;15.14;95.56
31911;BME280;18457;52.432;16.914;2023-04-24T00:21:50;99441.91;;;15.18;95.21
31911;BME280;18457;52.432;16.914;2023-04-24T00:24:22;99447.38;;;15.18;94.83
31911;BME280;18457;52.432;16.914;2023-04-24T00:26:55;99442.08;;;15.21;94.11
31911;BME280;18457;52.432;16.914;2023-04-24T00:29:27;99440.40;;;15.25;93.78
31911;BME280;18457;52.432;16.914;2023-04-24T00:32:00;99441.65;;;15.29;93.30
31911;BME280;18457;52.432;16.914;2023-04-24T00:34:33;99435.68;;;15.31;92.76
31911;BME280;18457;52.432;16.914;2023-04-24T00:37:05;99431.85;;;15.28;92.89
31911;BME280;18457;52.432;16.914;2023-04-24T00:39:37;99429.85;;;15.28;92.93
31911;BME280;18457;52.432;16.914;2023-04-24T00:42:11;99423.96;;;15.26;92.90
31911;BME280;18457;52.432;16.914;2023-04-24T00:44:44;99420.26;;;15.27;92.71
31911;BME280;18457;52.432;16.914;2023-04-24T00:47:17;99422.54;;;15.26;92.81
31911;BME280;18457;52.432;16.914;2023-04-24T00:49:51;99422.77;;;15.25;92.99
31911;BME280;18457;52.432;16.914;2023-04-24T00:52:24;99421.91;;;15.27;92.64
31911;BME280;18457;52.432;16.914;2023-04-24T00:54:56;99424.21;;;15.28;92.46
31911;BME280;18457;52.432;16.914;2023-04-24T00:57:29;99423.04;;;15.29;92.14
31911;BME280;18457;52.432;16.914;2023-04-24T01:00:01;99419.08;;;15.29;91.38
31911;BME280;18457;52.432;16.914;2023-04-24T01:02:36;99424.89;;;15.32;90.78
31911;BME280;18457;52.432;16.914;2023-04-24T01:05:13;99427.63;;;15.35;90.98
31911;BME280;18457;52.432;16.914;2023-04-24T01:07:47;99425.98;;;15.35;91.26
31911;BME280;18457;52.432;16.914;2023-04-24T01:10:20;99418.73;;;15.35;90.62
31911;BME280;18457;52.432;16.914;2023-04-24T01:12:53;99414.61;;;15.30;92.31
31911;BME280;18457;52.432;16.914;2023-04-24T01:15:25;99413.24;;;15.29;93.63
31911;BME280;18457;52.432;16.914;2023-04-24T01:17:57;99411.63;;;15.26;95.12
31911;BME280;18457;52.432;16.914;2023-04-24T01:20:32;99405.98;;;15.19;96.03
31911;BME280;18457;52.432;16.914;2023-04-24T01:23:07;99404.07;;;15.15;95.77
31911;BME280;18457;52.432;16.914;2023-04-24T01:25:41;99404.50;;;15.05;98.28
31911;BME280;18457;52.432;16.914;2023-04-24T01:28:15;99399.16;;;14.93;99.47
31911;BME280;18457;52.432;16.914;2023-04-24T01:30:48;99397.84;;;14.97;98.55
31911;BME280;18457;52.432;16.914;2023-04-24T01:33:22;99383.30;;;14.94;99.17
31911;BME280;18457;52.432;16.914;2023-04-24T01:35:55;99386.80;;;14.96;99.90
31911;BME280;18457;52.432;16.914;2023-04-24T01:38:26;99385.89;;;14.99;99.99
31911;BME280;18457;52.432;16.914;2023-04-24T01:40:59;99384.02;;;14.97;100.00
31911;BME280;18457;52.432;16.914;2023-04-24T01:43:31;99387.62;;;14.98;100.00
31911;BME280;18457;52.432;16.914;2023-04-24T01:46:06;99382.64;;;14.99;100.00
31911;BME280;18457;52.432;16.914;2023-04-24T01:48:40;99389.36;;;14.99;100.00
31911;BME280;18457;52.432;16.914;2023-04-24T01:51:13;99391.40;;;14.99;100.00
31911;BME280;18457;52.432;16.914;2023-04-24T01:53:45;99385.92;;;14.96;99.49
31911;BME280;18457;52.432;16.914;2023-04-24T01:56:17;99393.34;;;15.00;98.70
31911;BME280;18457;52.432;16.914;2023-04-24T01:58:50;99393.24;;;14.98;99.32
31911;BME280;18457;52.432;16.914;2023-04-24T02:01:23;99391.52;;;14.87;100.00
31911;BME280;18457;52.432;16.914;2023-04-24T02:03:57;99388.43;;;14.84;100.00
31911;BME280;18457;52.432;16.914;2023-04-24T02:06:29;99388.49;;;14.79;100.00
31911;BME280;18457;52.432;16.914;2023-04-24T02:09:04;99379.54;;;14.74;99.93
31911;BME280;18457;52.432;16.914;2023-04-24T02:11:36;99381.52;;;14.74;99.95
31911;BME280;18457;52.432;16.914;2023-04-24T02:14:09;99372.64;;;14.71;100.00
31911;BME280;18457;52.432;16.914;2023-04-24T02:16:43;99382.16;;;14.79;99.84
31911;BME280;18457;52.432;16.914;2023-04-24T02:19:16;99379.48;;;14.81;99.90
31911;BME280;18457;52.432;16.914;2023-04-24T02:21:48;99379.18;;;14.80;99.83
31911;BME280;18457;52.432;16.914;2023-04-24T02:24:19;99370.64;;;14.74;100.00
31911;BME280;18457;52.432;16.914;2023-04-24T02:26:51;99362.98;;;14.71;100.00
31911;BME280;18457;52.432;16.914;2023-04-24T02:29:24;99354.95;;;14.65;100.00
31911;BME280;18457;52.432;16.914;2023-04-24T02:31:55;99345.05;;;14.54;100.00
31911;BME280;18457;52.432;16.914;2023-04-24T02:34:28;99343.11;;;14.47;100.00
31911;BME280;18457;52.432;16.914;2023-04-24T02:37:00;99343.30;;;14.50;100.00
31911;BME280;18457;52.432;16.914;2023-04-24T02:39:32;99342.35;;;14.54;100.00
31911;BME280;18457;52.432;16.914;2023-04-24T02:42:06;99337.30;;;14.57;100.00
31911;BME280;18457;52.432;16.914;2023-04-24T02:44:38;99338.00;;;14.57;100.00
31911;BME280;18457;52.432;16.914;2023-04-24T02:47:11;99343.23;;;14.54;100.00
31911;BME280;18457;52.432;16.914;2023-04-24T02:49:43;99342.05;;;14.50;100.00
31911;BME280;18457;52.432;16.914;2023-04-24T02:52:15;99333.14;;;14.50;100.00
31911;BME280;18457;52.432;16.914;2023-04-24T02:54:47;99331.45;;;14.51;100.00
31911;BME280;18457;52.432;16.914;2023-04-24T02:57:20;99331.33;;;14.53;100.00
31911;BME280;18457;52.432;16.914;2023-04-24T02:59:52;99325.96;;;14.55;100.00
31911;BME280;18457;52.432;16.914;2023-04-24T03:02:24;99324.86;;;14.48;100.00
31911;BME280;18457;52.432;16.914;2023-04-24T03:04:57;99327.51;;;14.47;100.00
31911;BME280;18457;52.432;16.914;2023-04-24T03:07:30;99329.67;;;14.46;100.00
31911;BME280;18457;52.432;16.914;2023-04-24T03:10:03;99325.71;;;14.46;100.00
31911;BME280;18457;52.432;16.914;2023-04-24T03:12:35;99320.02;;;14.41;100.00
31911;BME280;18457;52.432;16.914;2023-04-24T03:15:09;99312.58;;;14.44;100.00
31911;BME280;18457;52.432;16.914;2023-04-24T03:17:41;99310.71;;;14.48;100.00
31911;BME280;18457;52.432;16.914;2023-04-24T03:20:13;99308.67;;;14.45;100.00
31911;BME280;18457;52.432;16.914;2023-04-24T03:22:46;99303.73;;;14.34;100.00
31911;BME280;18457;52.432;16.914;2023-04-24T03:25:20;99300.29;;;14.34;100.00
31911;BME280;18457;52.432;16.914;2023-04-24T03:27:52;99300.09;;;14.40;100.00
31911;BME280;18457;52.432;16.914;2023-04-24T03:30:45;99298.33;;;14.36;100.00
31911;BME280;18457;52.432;16.914;2023-04-24T03:33:19;99294.48;;;14.30;100.00
31911;BME280;18457;52.432;16.914;2023-04-24T03:36:00;99291.11;;;14.32;100.00
31911;BME280;18457;52.432;16.914;2023-04-24T03:38:40;99290.39;;;14.32;100.00
31911;BME280;18457;52.432;16.914;2023-04-24T03:41:23;99279.70;;;14.28;100.00
31911;BME280;18457;52.432;16.914;2023-04-24T03:44:07;99278.00;;;14.29;100.00
31911;BME280;18457;52.432;16.914;2023-04-24T03:46:40;99274.60;;;14.32;100.00
31911;BME280;18457;52.432;16.914;2023-04-24T03:49:15;99272.48;;;14.34;100.00
31911;BME280;18457;52.432;16.914;2023-04-24T03:51:49;99277.80;;;14.39;100.00
31911;BME280;18457;52.432;16.914;2023-04-24T03:54:25;99269.70;;;14.38;100.00
31911;BME280;18457;52.432;16.914;2023-04-24T03:56:58;99259.02;;;14.31;100.00
31911;BME280;18457;52.432;16.914;2023-04-24T03:59:32;99249.23;;;14.27;100.00
31911;BME280;18457;52.432;16.914;2023-04-24T04:02:12;99251.52;;;14.25;100.00
31911;BME280;18457;52.432;16.914;2023-04-24T04:04:45;99256.96;;;14.28;100.00
31911;BME280;18457;52.432;16.914;2023-04-24T04:07:20;99269.00;;;14.31;100.00
31911;BME280;18457;52.432;16.914;2023-04-24T04:09:53;99274.88;;;14.33;100.00
31911;BME280;18457;52.432;16.914;2023-04-24T04:12:27;99279.33;;;14.35;100.00
31911;BME280;18457;52.432;16.914;2023-04-24T04:14:59;99280.92;;;14.32;100.00
31911;BME280;18457;52.432;16.914;2023-04-24T04:17:35;99279.92;;;14.27;100.00
31911;BME280;18457;52.432;16.914;2023-04-24T04:20:11;99284.32;;;14.27;100.00
31911;BME280;18457;52.432;16.914;2023-04-24T04:22:45;99284.72;;;14.26;100.00
31911;BME280;18457;52.432;16.914;2023-04-24T04:25:24;99283.45;;;14.32;100.00
31911;BME280;18457;52.432;16.914;2023-04-24T04:28:01;99283.98;;;14.33;100.00
31911;BME280;18457;52.432;16.914;2023-04-24T04:30:34;99281.42;;;14.36;100.00
31911;BME280;18457;52.432;16.914;2023-04-24T04:33:10;99280.19;;;14.39;100.00
31911;BME280;18457;52.432;16.914;2023-04-24T04:35:43;99270.60;;;14.38;100.00
31911;BME280;18457;52.432;16.914;2023-04-24T04:38:17;99262.95;;;14.32;100.00
31911;BME280;18457;52.432;16.914;2023-04-24T04:40:58;99268.01;;;14.39;99.94
31911;BME280;18457;52.432;16.914;2023-04-24T04:43:31;99261.84;;;14.42;99.21
31911;BME280;18457;52.432;16.914;2023-04-24T04:46:04;99262.12;;;14.40;99.29
31911;BME280;18457;52.432;16.914;2023-04-24T04:48:51;99256.44;;;14.41;98.67
31911;BME280;18457;52.432;16.914;2023-04-24T04:51:23;99258.45;;;14.41;98.03
31911;BME280;18457;52.432;16.914;2023-04-24T04:53:55;99265.83;;;14.45;97.47
31911;BME280;18457;52.432;16.914;2023-04-24T04:56:28;99271.65;;;14.48;97.14
31911;BME280;18457;52.432;16.914;2023-04-24T04:59:02;99273.89;;;14.50;96.64
31911;BME280;18457;52.432;16.914;2023-04-24T05:01:34;99267.36;;;14.53;96.26
31911;BME280;18457;52.432;16.914;2023-04-24T05:04:09;99263.16;;;14.50;96.34
31911;BME280;18457;52.432;16.914;2023-04-24T05:06:41;99258.25;;;14.44;97.41
31911;BME280;18457;52.432;16.914;2023-04-24T05:09:14;99254.41;;;14.39;97.72
31911;BME280;18457;52.432;16.914;2023-04-24T05:11:58;99258.13;;;14.37;97.20
31911;BME280;18457;52.432;16.914;2023-04-24T05:14:31;99255.97;;;14.42;97.10
31911;BME280;18457;52.432;16.914;2023-04-24T05:17:03;99258.56;;;14.48;96.67
31911;BME280;18457;52.432;16.914;2023-04-24T05:19:37;99259.55;;;14.49;95.76
31911;BME280;18457;52.432;16.914;2023-04-24T05:22:11;99262.09;;;14.50;95.28
31911;BME280;18457;52.432;16.914;2023-04-24T05:24:50;99256.60;;;14.50;94.91
31911;BME280;18457;52.432;16.914;2023-04-24T05:27:41;99256.79;;;14.56;94.38
31911;BME280;18457;52.432;16.914;2023-04-24T05:30:17;99259.90;;;14.56;94.86
31911;BME280;18457;52.432;16.914;2023-04-24T05:32:48;99260.45;;;14.62;94.12
31911;BME280;18457;52.432;16.914;2023-04-24T05:35:22;99260.58;;;14.63;94.04
31911;BME280;18457;52.432;16.914;2023-04-24T05:37:54;99258.33;;;14.64;94.21
31911;BME280;18457;52.432;16.914;2023-04-24T05:40:27;99257.86;;;14.69;93.86
31911;BME280;18457;52.432;16.914;2023-04-24T05:42:59;99263.91;;;14.74;93.43
31911;BME280;18457;52.432;16.914;2023-04-24T05:45:32;99270.24;;;14.80;93.09
31911;BME280;18457;52.432;16.914;2023-04-24T05:48:07;99256.69;;;14.79;92.56
31911;BME280;18457;52.432;16.914;2023-04-24T05:50:39;99257.73;;;14.89;91.85
31911;BME280;18457;52.432;16.914;2023-04-24T05:53:12;99262.31;;;14.92;91.96
31911;BME280;18457;52.432;16.914;2023-04-24T05:55:44;99265.50;;;14.99;91.03
31911;BME280;18457;52.432;16.914;2023-04-24T05:58:15;99263.96;;;15.04;90.20
31911;BME280;18457;52.432;16.914;2023-04-24T06:00:49;99259.07;;;15.06;89.27
31911;BME280;18457;52.432;16.914;2023-04-24T06:03:21;99261.02;;;15.13;89.50
31911;BME280;18457;52.432;16.914;2023-04-24T06:05:54;99259.80;;;15.09;89.53
31911;BME280;18457;52.432;16.914;2023-04-24T06:08:26;99258.86;;;15.15;89.07
31911;BME280;18457;52.432;16.914;2023-04-24T06:10:59;99258.85;;;15.19;89.53
31911;BME280;18457;52.432;16.914;2023-04-24T06:13:35;99263.24;;;15.24;89.50
31911;BME280;18457;52.432;16.914;2023-04-24T06:16:46;99261.55;;;15.25;88.96
31911;BME280;18457;52.432;16.914;2023-04-24T06:19:29;99263.73;;;15.28;88.61
31911;BME280;18457;52.432;16.914;2023-04-24T06:22:02;99263.19;;;15.31;88.18
31911;BME280;18457;52.432;16.914;2023-04-24T06:24:35;99264.97;;;15.34;87.99
31911;BME280;18457;52.432;16.914;2023-04-24T06:27:05;99267.27;;;15.38;88.28
31911;BME280;18457;52.432;16.914;2023-04-24T06:29:37;99267.30;;;15.38;88.42
31911;BME280;18457;52.432;16.914;2023-04-24T06:32:10;99264.52;;;15.39;88.07
31911;BME280;18457;52.432;16.914;2023-04-24T06:34:41;99268.27;;;15.43;87.86
31911;BME280;18457;52.432;16.914;2023-04-24T06:37:13;99267.48;;;15.41;88.16
31911;BME280;18457;52.432;16.914;2023-04-24T06:39:47;99262.13;;;15.45;87.79
31911;BME280;18457;52.432;16.914;2023-04-24T06:42:21;99262.20;;;15.47;88.14
31911;BME280;18457;52.432;16.914;2023-04-24T06:44:55;99261.52;;;15.49;88.46
31911;BME280;18457;52.432;16.914;2023-04-24T06:47:27;99263.64;;;15.50;87.58
31911;BME280;18457;52.432;16.914;2023-04-24T06:50:02;99265.98;;;15.56;87.74
31911;BME280;18457;52.432;16.914;2023-04-24T06:52:35;99267.38;;;15.57;87.89
31911;BME280;18457;52.432;16.914;2023-04-24T06:55:09;99263.61;;;15.56;88.30
31911;BME280;18457;52.432;16.914;2023-04-24T06:57:42;99262.52;;;15.56;88.07
31911;BME280;18457;52.432;16.914;2023-04-24T07:00:28;99258.99;;;15.55;87.50
31911;BME280;18457;52.432;16.914;2023-04-24T07:03:00;99264.60;;;15.58;86.98
31911;BME280;18457;52.432;16.914;2023-04-24T07:05:32;99264.48;;;15.68;86.98
31911;BME280;18457;52.432;16.914;2023-04-24T07:08:06;99265.36;;;15.78;86.91
31911;BME280;18457;52.432;16.914;2023-04-24T07:10:39;99268.69;;;15.83;86.23
31911;BME280;18457;52.432;16.914;2023-04-24T07:13:11;99259.94;;;15.85;84.85
31911;BME280;18457;52.432;16.914;2023-04-24T07:15:43;99261.63;;;15.93;85.29
31911;BME280;18457;52.432;16.914;2023-04-24T07:18:15;99259.94;;;15.94;84.57
31911;BME280;18457;52.432;16.914;2023-04-24T07:20:47;99263.27;;;15.96;83.51
31911;BME280;18457;52.432;16.914;2023-04-24T07:23:21;99265.60;;;16.02;83.33
31911;BME280;18457;52.432;16.914;2023-04-24T07:25:53;99264.94;;;16.06;83.40
31911;BME280;18457;52.432;16.914;2023-04-24T07:28:25;99265.39;;;16.05;82.94
31911;BME280;18457;52.432;16.914;2023-04-24T07:30:57;99269.47;;;16.07;82.97
31911;BME280;18457;52.432;16.914;2023-04-24T07:33:30;99270.17;;;16.04;83.01
31911;BME280;18457;52.432;16.914;2023-04-24T07:36:03;99265.45;;;15.99;82.78
31911;BME280;18457;52.432;16.914;2023-04-24T07:38:35;99263.38;;;16.02;83.04
31911;BME280;18457;52.432;16.914;2023-04-24T07:41:07;99261.70;;;16.03;83.30
31911;BME280;18457;52.432;16.914;2023-04-24T07:43:42;99262.89;;;16.05;83.10
31911;BME280;18457;52.432;16.914;2023-04-24T07:46:14;99263.92;;;16.05;83.09
31911;BME280;18457;52.432;16.914;2023-04-24T07:48:47;99267.99;;;16.13;82.89
31911;BME280;18457;52.432;16.914;2023-04-24T07:51:31;99262.10;;;16.25;83.07
31911;BME280;18457;52.432;16.914;2023-04-24T07:54:09;99260.77;;;16.39;82.74
31911;BME280;18457;52.432;16.914;2023-04-24T07:56:43;99258.03;;;16.53;82.35
31911;BME280;18457;52.432;16.914;2023-04-24T07:59:15;99261.34;;;16.61;81.84
31911;BME280;18457;52.432;16.914;2023-04-24T08:01:47;99262.04;;;16.67;81.13
31911;BME280;18457;52.432;16.914;2023-04-24T08:04:20;99255.38;;;16.60;79.82
31911;BME280;18457;52.432;16.914;2023-04-24T08:06:52;99263.42;;;16.51;80.58
31911;BME280;18457;52.432;16.914;2023-04-24T08:09:24;99264.48;;;16.58;80.25
31911;BME280;18457;52.432;16.914;2023-04-24T08:11:57;99267.05;;;16.66;80.02
31911;BME280;18457;52.432;16.914;2023-04-24T08:14:29;99268.73;;;16.65;79.58
31911;BME280;18457;52.432;16.914;2023-04-24T08:17:01;99272.83;;;16.64;79.81
31911;BME280;18457;52.432;16.914;2023-04-24T08:19:34;99276.28;;;16.58;79.62
31911;BME280;18457;52.432;16.914;2023-04-24T08:22:06;99275.52;;;16.53;79.15
31911;BME280;18457;52.432;16.914;2023-04-24T08:24:38;99276.93;;;16.48;79.44
31911;BME280;18457;52.432;16.914;2023-04-24T08:27:11;99277.92;;;16.42;80.00
31911;BME280;18457;52.432;16.914;2023-04-24T08:29:42;99280.57;;;16.37;80.38
31911;BME280;18457;52.432;16.914;2023-04-24T08:32:15;99286.91;;;16.32;80.74
31911;BME280;18457;52.432;16.914;2023-04-24T08:34:47;99282.91;;;16.32;79.95
31911;BME280;18457;52.432;16.914;2023-04-24T08:37:18;99283.15;;;16.34;79.98
31911;BME280;18457;52.432;16.914;2023-04-24T08:39:50;99286.63;;;16.34;80.12
31911;BME280;18457;52.432;16.914;2023-04-24T08:42:21;99281.83;;;16.43;78.95
31911;BME280;18457;52.432;16.914;2023-04-24T08:44:53;99264.17;;;16.32;79.32
31911;BME280;18457;52.432;16.914;2023-04-24T08:47:27;99270.30;;;16.49;79.98
31911;BME280;18457;52.432;16.914;2023-04-24T08:49:59;99269.13;;;16.65;79.47
31911;BME280;18457;52.432;16.914;2023-04-24T08:52:33;99272.48;;;16.75;78.78
31911;BME280;18457;52.432;16.914;2023-04-24T08:55:07;99276.30;;;16.80;78.34
31911;BME280;18457;52.432;16.914;2023-04-24T08:57:40;99274.70;;;16.82;77.86
31911;BME280;18457;52.432;16.914;2023-04-24T09:00:16;99273.41;;;16.88;77.75
31911;BME280;18457;52.432;16.914;2023-04-24T09:02:50;99271.75;;;16.93;77.40
31911;BME280;18457;52.432;16.914;2023-04-24T09:05:24;99269.70;;;16.94;77.26
31911;BME280;18457;52.432;16.914;2023-04-24T09:07:58;99276.29;;;17.01;77.56
31911;BME280;18457;52.432;16.914;2023-04-24T09:10:32;99277.75;;;17.04;77.37
31911;BME280;18457;52.432;16.914;2023-04-24T09:13:06;99280.08;;;17.15;76.99
31911;BME280;18457;52.432;16.914;2023-04-24T09:15:40;99275.02;;;17.20;77.06
31911;BME280;18457;52.432;16.914;2023-04-24T09:18:11;99279.85;;;17.31;77.11
31911;BME280;18457;52.432;16.914;2023-04-24T09:20:59;99276.92;;;17.39;76.90
31911;BME280;18457;52.432;16.914;2023-04-24T09:23:32;99272.41;;;17.49;76.13
31911;BME280;18457;52.432;16.914;2023-04-24T09:26:05;99277.80;;;17.56;75.61
31911;BME280;18457;52.432;16.914;2023-04-24T09:28:39;99275.05;;;17.66;75.04
31911;BME280;18457;52.432;16.914;2023-04-24T09:31:14;99273.84;;;17.78;74.67
31911;BME280;18457;52.432;16.914;2023-04-24T09:33:57;99273.02;;;17.76;74.34
31911;BME280;18457;52.432;16.914;2023-04-24T09:36:30;99276.27;;;17.79;73.68
31911;BME280;18457;52.432;16.914;2023-04-24T09:39:05;99271.98;;;17.86;73.98
31911;BME280;18457;52.432;16.914;2023-04-24T09:41:45;99275.65;;;17.85;73.47
31911;BME280;18457;52.432;16.914;2023-04-24T09:44:19;99275.48;;;17.85;73.03
31911;BME280;18457;52.432;16.914;2023-04-24T09:46:53;99272.67;;;17.86;72.62
31911;BME280;18457;52.432;16.914;2023-04-24T09:49:27;99270.73;;;17.90;72.38
31911;BME280;18457;52.432;16.914;2023-04-24T09:52:05;99269.54;;;17.86;71.91
31911;BME280;18457;52.432;16.914;2023-04-24T09:54:39;99272.12;;;17.99;71.70
31911;BME280;18457;52.432;16.914;2023-04-24T09:57:11;99276.59;;;18.07;71.20
31911;BME280;18457;52.432;16.914;2023-04-24T09:59:47;99273.04;;;18.13;70.84
31911;BME280;18457;52.432;16.914;2023-04-24T10:02:20;99274.26;;;18.17;70.24
31911;BME280;18457;52.432;16.914;2023-04-24T10:04:57;99269.91;;;18.21;69.83
31911;BME280;18457;52.432;16.914;2023-04-24T10:07:33;99277.02;;;18.23;70.20
31911;BME280;18457;52.432;16.914;2023-04-24T10:10:07;99274.59;;;18.15;70.30
31911;BME280;18457;52.432;16.914;2023-04-24T10:12:40;99279.77;;;18.13;70.47
31911;BME280;18457;52.432;16.914;2023-04-24T10:15:17;99277.66;;;18.15;70.38
31911;BME280;18457;52.432;16.914;2023-04-24T10:17:52;99276.77;;;18.20;70.25
31911;BME280;18457;52.432;16.914;2023-04-24T10:20:26;99279.19;;;18.24;69.92
31911;BME280;18457;52.432;16.914;2023-04-24T10:23:00;99280.73;;;18.23;69.89
31911;BME280;18457;52.432;16.914;2023-04-24T10:25:35;99274.55;;;18.15;70.67
31911;BME280;18457;52.432;16.914;2023-04-24T10:28:08;99273.98;;;18.15;70.75
31911;BME280;18457;52.432;16.914;2023-04-24T10:30:44;99273.94;;;18.23;70.86
31911;BME280;18457;52.432;16.914;2023-04-24T10:33:17;99277.20;;;18.22;71.15
31911;BME280;18457;52.432;16.914;2023-04-24T10:35:51;99275.80;;;18.25;71.18
31911;BME280;18457;52.432;16.914;2023-04-24T10:38:26;99272.88;;;18.30;71.43
31911;BME280;18457;52.432;16.914;2023-04-24T10:41:08;99282.26;;;18.37;70.52
31911;BME280;18457;52.432;16.914;2023-04-24T10:43:46;99277.33;;;18.40;70.80
31911;BME280;18457;52.432;16.914;2023-04-24T10:46:21;99278.05;;;18.52;70.75
31911;BME280;18457;52.432;16.914;2023-04-24T10:48:56;99282.38;;;18.53;71.34
31911;BME280;18457;52.432;16.914;2023-04-24T10:51:46;99288.81;;;18.33;70.88
31911;BME280;18457;52.432;16.914;2023-04-24T10:54:26;99282.35;;;18.31;71.16
31911;BME280;18457;52.432;16.914;2023-04-24T10:57:28;99282.73;;;18.26;71.62
31911;BME280;18457;52.432;16.914;2023-04-24T11:00:24;99288.67;;;18.40;70.75
31911;BME280;18457;52.432;16.914;2023-04-24T11:02:58;99284.05;;;18.53;70.32
31911;BME280;18457;52.432;16.914;2023-04-24T11:05:52;99284.59;;;18.80;69.86
31911;BME280;18457;52.432;16.914;2023-04-24T11:08:30;99286.33;;;19.02;69.05
31911;BME280;18457;52.432;16.914;2023-04-24T11:11:10;99282.83;;;19.05;66.36
31911;BME280;18457;52.432;16.914;2023-04-24T11:14:07;99283.05;;;19.11;65.48
31911;BME280;18457;52.432;16.914;2023-04-24T11:16:45;99286.36;;;19.08;64.51
31911;BME280;18457;52.432;16.914;2023-04-24T11:19:27;99288.27;;;19.08;64.27
31911;BME280;18457;52.432;16.914;2023-04-24T11:22:02;99286.73;;;18.99;63.55
31911;BME280;18457;52.432;16.914;2023-04-24T11:24:48;99289.38;;;19.03;62.92
31911;BME280;18457;52.432;16.914;2023-04-24T11:27:23;99299.71;;;18.92;63.58
31911;BME280;18457;52.432;16.914;2023-04-24T11:30:02;99297.38;;;18.96;63.78
31911;BME280;18457;52.432;16.914;2023-04-24T11:32:38;99303.23;;;18.94;63.82
31911;BME280;18457;52.432;16.914;2023-04-24T11:35:16;99302.99;;;18.90;63.93
31911;BME280;18457;52.432;16.914;2023-04-24T11:37:51;99305.79;;;18.94;63.92
31911;BME280;18457;52.432;16.914;2023-04-24T11:40:44;99303.96;;;18.87;63.59
31911;BME280;18457;52.432;16.914;2023-04-24T11:43:18;99298.67;;;18.82;63.92
31911;BME280;18457;52.432;16.914;2023-04-24T11:45:50;99305.98;;;18.77;64.35
31911;BME280;18457;52.432;16.914;2023-04-24T11:48:23;99299.26;;;18.86;63.65
31911;BME280;18457;52.432;16.914;2023-04-24T11:50:56;99298.10;;;18.87;61.86
31911;BME280;18457;52.432;16.914;2023-04-24T11:53:29;99303.83;;;18.91;61.31
31911;BME280;18457;52.432;16.914;2023-04-24T11:56:05;99302.19;;;18.89;60.88
31911;BME280;18457;52.432;16.914;2023-04-24T11:58:38;99300.98;;;18.83;61.02
31911;BME280;18457;52.432;16.914;2023-04-24T12:01:10;99304.21;;;19.00;60.64
31911;BME280;18457;52.432;16.914;2023-04-24T12:03:43;99300.17;;;19.17;60.95
31911;BME280;18457;52.432;16.914;2023-04-24T12:06:19;99298.36;;;19.17;60.77
31911;BME280;18457;52.432;16.914;2023-04-24T12:08:54;99297.78;;;19.15;60.53
31911;BME280;18457;52.432;16.914;2023-04-24T12:11:54;99289.70;;;19.15;60.46
31911;BME280;18457;52.432;16.914;2023-04-24T12:14:27;99287.45;;;19.23;60.51
31911;BME280;18457;52.432;16.914;2023-04-24T12:17:01;99287.52;;;19.29;60.81
31911;BME280;18457;52.432;16.914;2023-04-24T12:19:35;99286.73;;;19.32;61.07
31911;BME280;18457;52.432;16.914;2023-04-24T12:22:07;99281.21;;;19.30;61.08
31911;BME280;18457;52.432;16.914;2023-04-24T12:25:01;99283.49;;;19.29;60.75
31911;BME280;18457;52.432;16.914;2023-04-24T12:27:34;99280.02;;;19.19;60.50
31911;BME280;18457;52.432;16.914;2023-04-24T12:30:09;99281.90;;;19.14;61.44
31911;BME280;18457;52.432;16.914;2023-04-24T12:32:45;99281.45;;;19.04;61.57
31911;BME280;18457;52.432;16.914;2023-04-24T12:35:22;99281.42;;;18.90;61.66
31911;BME280;18457;52.432;16.914;2023-04-24T12:37:55;99281.53;;;18.79;62.16
31911;BME280;18457;52.432;16.914;2023-04-24T12:40:27;99283.14;;;18.70;62.55
31911;BME280;18457;52.432;16.914;2023-04-24T12:43:02;99281.65;;;18.53;62.14
31911;BME280;18457;52.432;16.914;2023-04-24T12:45:34;99273.95;;;18.53;62.45
31911;BME280;18457;52.432;16.914;2023-04-24T12:48:06;99264.50;;;18.45;63.64
31911;BME280;18457;52.432;16.914;2023-04-24T12:50:39;99258.87;;;18.42;63.46
31911;BME280;18457;52.432;16.914;2023-04-24T12:53:14;99258.55;;;18.39;64.10
31911;BME280;18457;52.432;16.914;2023-04-24T12:55:46;99258.64;;;18.38;64.46
31911;BME280;18457;52.432;16.914;2023-04-24T12:58:23;99254.53;;;18.36;65.18
31911;BME280;18457;52.432;16.914;2023-04-24T13:00:55;99252.95;;;18.28;65.13
31911;BME280;18457;52.432;16.914;2023-04-24T13:03:29;99250.25;;;18.20;66.03
31911;BME280;18457;52.432;16.914;2023-04-24T13:06:01;99257.45;;;18.16;66.98
31911;BME280;18457;52.432;16.914;2023-04-24T13:08:33;99252.07;;;18.20;67.56
31911;BME280;18457;52.432;16.914;2023-04-24T13:11:05;99247.17;;;18.15;68.56
31911;BME280;18457;52.432;16.914;2023-04-24T13:13:37;99245.68;;;18.20;68.63
31911;BME280;18457;52.432;16.914;2023-04-24T13:16:10;99244.96;;;18.20;68.85
31911;BME280;18457;52.432;16.914;2023-04-24T13:18:42;99243.86;;;18.15;69.17
31911;BME280;18457;52.432;16.914;2023-04-24T13:21:14;99245.59;;;18.14;69.33
31911;BME280;18457;52.432;16.914;2023-04-24T13:23:46;99245.75;;;18.19;68.63
31911;BME280;18457;52.432;16.914;2023-04-24T13:26:18;99248.45;;;18.22;68.45